Time;durP1;ratioP1;P1;durP2;ratioP2;P2;SDS_P1;SDS_P2;PMS_P1;PMS_P2;Temp;Humidity;BMP_temperature;BMP_pressure;BME280_temperature;BME280_humidity;BME280_pressure;Samples;Min_cycle;Max_cycle;Signal;HPM_P1;HPM_P2
2021/03/17 00:00:57;;;;;;;2.92;1.38;;;;;;;11.04;23.80;101365.53;4876257;29;20949;-64
2021/03/17 00:03:24;;;;;;;2.83;1.58;;;;;;;11.02;23.87;101364.75;4878321;29;20049;-64
2021/03/17 00:05:52;;;;;;;3.83;1.70;;;;;;;10.98;23.88;101376.34;4878555;29;20052;-64
2021/03/17 00:08:21;;;;;;;5.93;1.58;;;;;;;10.92;24.20;101359.97;4878975;29;20457;-64
2021/03/17 00:10:52;;;;;;;3.03;1.70;;;;;;;10.84;24.33;101369.97;4878344;29;20056;-65
2021/03/17 00:13:23;;;;;;;4.38;1.60;;;;;;;10.86;24.29;101367.28;4876403;29;20079;-64
2021/03/17 00:15:49;;;;;;;4.43;1.38;;;;;;;10.84;24.54;101361.25;4878393;29;20049;-64
2021/03/17 00:18:15;;;;;;;4.28;1.90;;;;;;;10.82;24.53;101373.59;4878417;29;20064;-64
2021/03/17 00:20:42;;;;;;;2.92;1.65;;;;;;;10.78;24.84;101373.75;4877962;29;20052;-64
2021/03/17 00:23:08;;;;;;;3.28;1.80;;;;;;;10.71;24.74;101377.56;4878534;29;20053;-65
2021/03/17 00:25:37;;;;;;;5.35;1.77;;;;;;;10.72;24.84;101378.44;4862038;29;20530;-64
2021/03/17 00:28:08;;;;;;;2.28;1.60;;;;;;;10.73;24.86;101377.53;4878625;29;20144;-64
2021/03/17 00:30:36;;;;;;;2.25;1.65;;;;;;;10.74;24.90;101376.59;4878579;29;20488;-64
2021/03/17 00:33:06;;;;;;;3.17;1.65;;;;;;;10.75;24.81;101380.91;4881720;29;20049;-64
2021/03/17 00:35:33;;;;;;;3.17;1.83;;;;;;;10.73;24.81;101373.13;4893506;29;20052;-63
2021/03/17 00:37:59;;;;;;;4.03;1.77;;;;;;;10.72;24.67;101379.28;4878469;29;20389;-64
2021/03/17 00:40:26;;;;;;;1.40;1.30;;;;;;;10.70;24.87;101375.88;4878373;29;20505;-64
2021/03/17 00:42:52;;;;;;;3.47;1.58;;;;;;;10.69;25.26;101381.19;4878250;29;20056;-66
2021/03/17 00:45:18;;;;;;;3.38;1.92;;;;;;;10.66;24.99;101374.31;4876500;29;20148;-65
2021/03/17 00:47:45;;;;;;;2.92;1.50;;;;;;;10.66;25.29;101370.84;4859795;29;20069;-65
2021/03/17 00:50:14;;;;;;;3.38;1.77;;;;;;;10.64;25.53;101373.56;4859885;29;20057;-64
2021/03/17 00:52:41;;;;;;;3.63;1.77;;;;;;;10.60;26.00;101369.34;4859673;29;20508;-64
2021/03/17 00:55:09;;;;;;;2.97;1.40;;;;;;;10.54;26.37;101367.88;4875758;29;20049;-64
2021/03/17 00:57:35;;;;;;;2.92;1.98;;;;;;;10.50;26.48;101366.31;4878137;29;20452;-64
2021/03/17 01:00:08;;;;;;;6.32;1.40;;;;;;;10.47;26.88;101363.00;4878350;29;20148;-64
2021/03/17 01:02:34;;;;;;;5.00;1.80;;;;;;;10.43;26.90;101362.28;4878184;29;20055;-64
2021/03/17 01:05:00;;;;;;;5.80;2.15;;;;;;;10.39;26.98;101366.81;4878244;29;20053;-64
2021/03/17 01:07:26;;;;;;;2.92;1.65;;;;;;;10.36;27.04;101368.72;4863839;29;20057;-65
2021/03/17 01:09:52;;;;;;;3.45;2.28;;;;;;;10.32;27.29;101369.75;4881649;29;20621;-64
2021/03/17 01:12:19;;;;;;;3.95;1.70;;;;;;;10.28;27.60;101369.03;4881725;29;20100;-64
2021/03/17 01:14:45;;;;;;;3.05;1.90;;;;;;;10.25;27.74;101362.16;4881571;29;20053;-64
2021/03/17 01:17:12;;;;;;;4.68;1.50;;;;;;;10.27;27.56;101362.94;4881488;29;20045;-64
2021/03/17 01:19:39;;;;;;;3.58;1.80;;;;;;;10.24;27.58;101365.69;4881524;29;20412;-64
2021/03/17 01:22:05;;;;;;;6.85;1.70;;;;;;;10.23;27.55;101365.78;4881556;29;20049;-64
2021/03/17 01:24:32;;;;;;;3.33;1.52;;;;;;;10.19;27.79;101365.06;4881374;29;20052;-64
2021/03/17 01:26:59;;;;;;;4.18;1.60;;;;;;;10.14;27.96;101361.78;4880951;29;20454;-64
2021/03/17 01:29:25;;;;;;;3.80;1.70;;;;;;;10.12;27.87;101361.03;4881330;29;20488;-64
2021/03/17 01:31:52;;;;;;;3.38;1.90;;;;;;;10.11;28.26;101352.28;4881337;29;20090;-64
2021/03/17 01:34:18;;;;;;;4.78;1.85;;;;;;;10.11;28.42;101352.28;4881066;29;20057;-64
2021/03/17 01:36:44;;;;;;;6.88;1.77;;;;;;;10.11;28.50;101356.69;4881178;29;20704;-64
2021/03/17 01:39:11;;;;;;;6.85;2.17;;;;;;;10.12;28.53;101351.38;4881184;29;20068;-64
2021/03/17 01:41:37;;;;;;;2.85;1.90;;;;;;;10.15;28.58;101362.66;4881105;29;20053;-64
2021/03/17 01:44:03;;;;;;;3.17;1.80;;;;;;;10.14;28.61;101356.53;4881061;29;20053;-63
2021/03/17 01:46:30;;;;;;;5.82;2.10;;;;;;;10.12;28.53;101359.25;4881065;29;20049;-64
2021/03/17 01:48:56;;;;;;;2.72;1.95;;;;;;;10.11;28.66;101362.78;4880884;29;20053;-64
2021/03/17 01:51:23;;;;;;;4.65;2.10;;;;;;;10.09;28.72;101355.91;4880952;29;20059;-64
2021/03/17 01:53:50;;;;;;;6.40;2.88;;;;;;;10.05;28.83;101364.84;4880943;29;20059;-65
2021/03/17 01:56:16;;;;;;;3.78;2.15;;;;;;;10.02;29.00;101359.72;4880696;29;20060;-64
2021/03/17 01:58:43;;;;;;;4.72;1.80;;;;;;;9.99;29.01;101355.44;4880699;29;20064;-64
2021/03/17 02:01:09;;;;;;;7.15;2.25;;;;;;;9.96;29.38;101352.97;4880911;29;20477;-64
2021/03/17 02:03:36;;;;;;;3.35;1.92;;;;;;;9.92;29.44;101360.13;4864040;29;20535;-64
2021/03/17 02:06:02;;;;;;;4.95;2.15;;;;;;;9.92;29.29;101362.75;4880821;29;20049;-64
2021/03/17 02:08:34;;;;;;;4.70;2.40;;;;;;;9.92;29.73;101359.28;4880753;29;20142;-63
2021/03/17 02:11:00;;;;;;;5.63;2.63;;;;;;;9.89;29.54;101357.66;4880622;29;20404;-63
2021/03/17 02:13:38;;;;;;;4.22;2.50;;;;;;;9.89;29.84;101356.78;4880742;29;20078;-63
2021/03/17 02:16:35;;;;;;;3.55;2.30;;;;;;;9.86;29.83;101349.06;4880694;29;20131;-64
2021/03/17 02:19:05;;;;;;;5.55;2.30;;;;;;;9.83;29.90;101349.19;4879388;29;20049;-64
2021/03/17 02:21:52;;;;;;;4.72;2.58;;;;;;;9.78;30.39;101349.41;4880672;29;20057;-64
2021/03/17 02:24:34;;;;;;;5.18;2.92;;;;;;;9.74;30.38;101347.84;4880331;29;20428;-64
2021/03/17 02:27:41;;;;;;;8.82;2.95;;;;;;;9.69;30.56;101342.78;4880393;29;20492;-64
2021/03/17 02:30:41;;;;;;;7.47;3.08;;;;;;;9.68;30.58;101335.84;4822818;29;20111;-63
2021/03/17 02:33:45;;;;;;;6.82;2.97;;;;;;;9.70;30.53;101334.00;4880359;29;20131;-63
2021/03/17 02:36:18;;;;;;;7.75;3.22;;;;;;;9.74;30.37;101337.34;4879417;29;20424;-63
2021/03/17 02:38:54;;;;;;;5.45;2.97;;;;;;;9.73;30.54;101335.66;4879903;29;20530;-64
2021/03/17 02:41:26;;;;;;;5.63;3.17;;;;;;;9.74;30.79;101339.97;4879788;29;20048;-64
2021/03/17 02:43:56;;;;;;;5.72;2.92;;;;;;;9.68;30.76;101348.09;4879813;29;20088;-63
2021/03/17 02:46:25;;;;;;;4.50;3.03;;;;;;;9.55;30.95;101342.50;4879957;29;20059;-63
2021/03/17 02:49:00;;;;;;;6.97;3.40;;;;;;;9.49;30.86;101341.00;4879843;29;20512;-64
2021/03/17 02:51:31;;;;;;;8.32;3.72;;;;;;;9.46;31.15;101344.63;4879881;29;20132;-63
2021/03/17 02:54:01;;;;;;;5.85;3.00;;;;;;;9.45;31.41;101342.91;4879764;29;20060;-63
2021/03/17 02:56:30;;;;;;;8.05;3.75;;;;;;;9.43;31.10;101339.53;4879723;29;20053;-63
2021/03/17 02:58:58;;;;;;;12.68;4.80;;;;;;;9.41;31.26;101338.72;4879273;29;20045;-63
2021/03/17 03:01:25;;;;;;;10.80;4.45;;;;;;;9.41;31.14;101341.34;4879767;29;20053;-64
2021/03/17 03:03:51;;;;;;;11.15;4.22;;;;;;;9.41;31.20;101346.59;4879615;29;20053;-64
2021/03/17 03:06:18;;;;;;;8.52;4.57;;;;;;;9.39;31.19;101348.41;4879763;29;20055;-63
2021/03/17 03:08:46;;;;;;;11.60;5.20;;;;;;;9.39;31.23;101351.03;4879457;29;20049;-64
2021/03/17 03:11:15;;;;;;;9.52;4.32;;;;;;;9.40;30.98;101350.09;4879524;29;20049;-64
2021/03/17 03:13:43;;;;;;;10.27;4.13;;;;;;;9.43;31.16;101352.63;4879434;29;20128;-64
2021/03/17 03:16:14;;;;;;;8.88;4.45;;;;;;;9.40;31.10;101346.66;4879351;29;20057;-64
2021/03/17 03:18:45;;;;;;;8.27;4.03;;;;;;;9.40;31.11;101339.63;4879391;29;20049;-64
2021/03/17 03:21:17;;;;;;;6.10;3.22;;;;;;;9.40;31.01;101342.25;4879409;29;20491;-64
2021/03/17 03:23:46;;;;;;;6.82;3.30;;;;;;;9.43;30.87;101333.41;4879283;29;20048;-64
2021/03/17 03:26:17;;;;;;;6.85;2.72;;;;;;;9.45;30.64;101336.84;4879421;29;20419;-64
2021/03/17 03:28:45;;;;;;;6.00;2.72;;;;;;;9.43;30.57;101334.28;4878798;29;20071;-63
2021/03/17 03:31:12;;;;;;;5.40;2.70;;;;;;;9.41;30.37;101336.09;4879073;29;20049;-64
2021/03/17 03:33:38;;;;;;;4.63;2.85;;;;;;;9.38;30.37;101335.38;4879061;29;20057;-64
2021/03/17 03:36:05;;;;;;;7.75;3.72;;;;;;;9.32;30.34;101334.72;4879221;29;20052;-63
2021/03/17 03:38:31;;;;;;;5.45;2.83;;;;;;;9.28;30.30;101334.91;4878901;29;20056;-64
2021/03/17 03:40:59;;;;;;;5.07;2.78;;;;;;;9.11;30.68;101333.84;4878953;29;20072;-64
2021/03/17 03:43:26;;;;;;;8.45;3.10;;;;;;;8.96;31.06;101340.56;4878867;29;20489;-63
2021/03/17 03:45:52;;;;;;;9.77;2.80;;;;;;;8.90;31.00;101348.66;4878398;29;20045;-63
2021/03/17 03:48:22;;;;;;;8.43;4.43;;;;;;;8.82;31.37;101350.72;4878952;29;20424;-64
2021/03/17 03:50:50;;;;;;;10.77;4.72;;;;;;;8.75;32.02;101347.50;4878587;29;20128;-64
2021/03/17 03:53:30;;;;;;;9.55;4.00;;;;;;;8.73;32.06;101357.16;4878962;29;20551;-64
2021/03/17 03:56:09;;;;;;;10.38;3.88;;;;;;;8.75;32.14;101359.75;4878644;29;20523;-63
2021/03/17 03:59:10;;;;;;;7.95;4.20;;;;;;;8.65;32.59;101356.63;4878741;29;20057;-63
2021/03/17 04:01:47;;;;;;;12.80;4.45;;;;;;;8.59;32.65;101352.47;4847783;29;20105;-64
2021/03/17 04:04:19;;;;;;;9.07;4.60;;;;;;;8.58;32.73;101355.13;4874690;29;20125;-64
2021/03/17 04:06:51;;;;;;;9.07;4.45;;;;;;;8.58;33.05;101360.38;4875463;29;20056;-66
2021/03/17 04:09:25;;;;;;;10.10;5.13;;;;;;;8.59;33.05;101349.00;4875352;29;20048;-65
2021/03/17 04:11:56;;;;;;;10.38;5.13;;;;;;;8.57;33.40;101356.03;4875441;29;20057;-64
2021/03/17 04:14:24;;;;;;;9.40;4.28;;;;;;;8.55;33.49;101350.03;4875357;29;20059;-63
2021/03/17 04:17:00;;;;;;;11.48;4.13;;;;;;;8.53;33.30;101352.69;4875267;29;20061;-64
2021/03/17 04:19:27;;;;;;;7.90;4.70;;;;;;;8.51;33.45;101354.53;4874954;29;20102;-64
2021/03/17 04:21:56;;;;;;;9.80;4.85;;;;;;;8.52;33.54;101352.75;4875318;29;20063;-64
2021/03/17 04:24:23;;;;;;;8.15;3.80;;;;;;;8.54;33.71;101349.16;4875399;29;20053;-64
2021/03/17 04:26:51;;;;;;;6.85;3.55;;;;;;;8.55;33.53;101345.66;4875086;29;20496;-64
2021/03/17 04:29:20;;;;;;;6.43;3.28;;;;;;;8.58;33.23;101350.78;4875183;29;20055;-64
2021/03/17 04:31:49;;;;;;;7.15;3.10;;;;;;;8.60;33.12;101346.31;4874989;29;20485;-65
2021/03/17 04:34:17;;;;;;;6.82;2.67;;;;;;;8.62;32.65;101346.25;4875130;29;20477;-64
2021/03/17 04:36:45;;;;;;;10.65;3.60;;;;;;;8.60;32.83;101343.69;4875029;29;20575;-64
2021/03/17 04:39:14;;;;;;;4.80;2.85;;;;;;;8.56;32.92;101346.50;4875139;29;20049;-64
2021/03/17 04:41:41;;;;;;;9.70;4.00;;;;;;;8.42;33.12;101352.25;4876003;29;20420;-64
2021/03/17 04:44:08;;;;;;;7.22;3.22;;;;;;;8.27;33.46;101351.06;4878821;29;20048;-64
2021/03/17 04:46:35;;;;;;;12.80;3.55;;;;;;;8.18;33.38;101357.47;4878892;29;20064;-63
2021/03/17 04:49:02;;;;;;;6.63;3.15;;;;;;;8.16;33.53;101356.66;4878717;29;20049;-64
2021/03/17 04:51:28;;;;;;;10.40;3.35;;;;;;;8.17;33.52;101353.97;4878917;29;20413;-64
2021/03/17 04:53:55;;;;;;;10.93;2.92;;;;;;;8.20;33.53;101354.78;4878251;29;20056;-64
2021/03/17 04:56:24;;;;;;;6.20;2.58;;;;;;;8.20;33.66;101337.31;4878599;29;20052;-64
2021/03/17 04:58:53;;;;;;;6.28;2.80;;;;;;;8.21;33.37;101333.81;4878689;29;20052;-64
2021/03/17 05:01:20;;;;;;;5.28;2.63;;;;;;;8.24;33.38;101331.09;4878922;29;20053;-64
2021/03/17 05:03:47;;;;;;;5.75;2.85;;;;;;;8.27;33.34;101337.97;4878697;29;20048;-64
2021/03/17 05:06:14;;;;;;;14.48;4.20;;;;;;;8.11;33.29;101335.06;4878638;29;20045;-63
2021/03/17 05:08:45;;;;;;;8.82;3.40;;;;;;;8.06;33.60;101337.00;4878297;29;20064;-64
2021/03/17 05:11:17;;;;;;;10.90;3.25;;;;;;;8.04;33.54;101337.06;4878077;29;20049;-65
2021/03/17 05:13:43;;;;;;;8.15;2.97;;;;;;;8.07;33.49;101330.88;4878281;29;20092;-65
2021/03/17 05:16:12;;;;;;;8.38;3.20;;;;;;;8.09;33.50;101326.44;4878169;29;20045;-64
2021/03/17 05:18:38;;;;;;;7.60;3.10;;;;;;;8.08;33.43;101320.34;4878372;29;20049;-64
2021/03/17 05:21:05;;;;;;;10.57;3.40;;;;;;;8.07;33.63;101318.63;4878565;29;20053;-65
2021/03/17 05:23:31;;;;;;;25.02;3.90;;;;;;;8.07;33.83;101318.63;4878381;29;20057;-64
2021/03/17 05:25:59;;;;;;;22.85;3.72;;;;;;;8.05;33.97;101325.69;4877990;29;20053;-64
2021/03/17 05:28:28;;;;;;;15.85;3.10;;;;;;;8.03;33.79;101322.28;4878153;29;20137;-64
2021/03/17 05:30:56;;;;;;;12.55;3.97;;;;;;;8.03;33.84;101318.81;4877872;29;20049;-64
2021/03/17 05:33:27;;;;;;;9.18;2.50;;;;;;;8.01;34.31;101327.56;4877972;29;20550;-64
2021/03/17 05:35:54;;;;;;;9.30;2.50;;;;;;;8.03;34.18;101326.66;4877750;29;20571;-64
2021/03/17 05:38:21;;;;;;;6.50;2.17;;;;;;;8.03;34.34;101324.91;4877906;29;20099;-64
2021/03/17 05:40:47;;;;;;;9.63;2.60;;;;;;;8.03;34.05;101329.28;4861219;29;20061;-64
2021/03/17 05:43:14;;;;;;;7.57;2.35;;;;;;;7.99;33.90;101323.31;4861414;29;20420;-65
2021/03/17 05:46:05;;;;;;;5.80;2.42;;;;;;;7.99;33.63;101324.16;4871548;29;20543;-64
2021/03/17 05:48:32;;;;;;;10.10;2.38;;;;;;;7.99;33.66;101331.16;4877630;29;20148;-64
2021/03/17 05:51:02;;;;;;;8.05;2.20;;;;;;;8.01;33.44;101322.34;4879377;29;20053;-64
2021/03/17 05:53:29;;;;;;;6.40;2.70;;;;;;;8.05;33.52;101323.09;4877518;29;20385;-64
2021/03/17 05:56:02;;;;;;;5.22;2.05;;;;;;;8.09;33.33;101318.59;4877498;29;20515;-63
2021/03/17 05:58:29;;;;;;;7.35;1.90;;;;;;;8.10;33.54;101315.94;4877674;29;20101;-66
2021/03/17 06:00:55;;;;;;;4.63;1.70;;;;;;;8.13;33.67;101318.41;4877499;29;20049;-66
2021/03/17 06:03:23;;;;;;;6.63;1.95;;;;;;;8.15;33.63;101319.22;4877804;29;20485;-66
2021/03/17 06:05:51;;;;;;;3.38;1.75;;;;;;;8.16;33.66;101312.22;4877405;29;20413;-67
2021/03/17 06:08:24;;;;;;;4.85;1.55;;;;;;;8.19;33.82;101314.72;4876163;29;20450;-68
2021/03/17 06:10:51;;;;;;;7.43;2.33;;;;;;;8.21;33.84;101310.28;4880510;29;20051;-67
2021/03/17 06:13:21;;;;;;;6.43;2.25;;;;;;;8.26;33.91;101308.34;4895989;29;20127;-67
2021/03/17 06:15:56;;;;;;;6.60;2.80;;;;;;;8.30;33.60;101309.09;4896033;29;20059;-69
2021/03/17 06:18:33;;;;;;;7.50;2.70;;;;;;;8.33;33.52;101306.38;4895755;29;20045;-69
2021/03/17 06:21:00;;;;;;;10.13;2.20;;;;;;;8.35;33.26;101309.75;4881058;29;20060;-68
2021/03/17 06:23:26;;;;;;;12.48;3.10;;;;;;;8.38;33.43;101301.81;4877163;29;20067;-68
2021/03/17 06:25:52;;;;;;;7.68;2.03;;;;;;;8.40;33.50;101305.19;4876816;29;20060;-66
2021/03/17 06:28:20;;;;;;;6.22;2.58;;;;;;;8.42;33.60;101308.63;4877098;29;20053;-67
2021/03/17 06:30:47;;;;;;;9.27;2.40;;;;;;;8.44;33.42;101301.59;4877109;29;20093;-66
2021/03/17 06:33:13;;;;;;;6.82;2.22;;;;;;;8.48;33.50;101295.34;4877330;29;20084;-67
2021/03/17 06:35:39;;;;;;;7.55;2.58;;;;;;;8.54;33.33;101303.88;4876672;29;20056;-68
2021/03/17 06:38:06;;;;;;;11.82;2.97;;;;;;;8.57;33.21;101301.97;4877228;29;20515;-68
2021/03/17 06:40:33;;;;;;;9.30;2.85;;;;;;;8.61;33.13;101308.78;4876671;29;20057;-67
2021/03/17 06:43:10;;;;;;;7.40;2.83;;;;;;;8.67;33.28;101302.44;4878025;29;20807;-66
2021/03/17 06:45:43;;;;;;;16.48;2.38;;;;;;;8.73;33.04;101301.38;4879133;29;20089;-66
2021/03/17 06:48:29;;;;;;;6.63;2.40;;;;;;;8.81;32.97;101305.38;4876240;29;20044;-65
2021/03/17 06:51:06;;;;;;;5.40;2.75;;;;;;;8.90;32.52;101312.00;4875756;29;20408;-66
2021/03/17 06:53:36;;;;;;;6.80;2.15;;;;;;;9.01;32.27;101314.19;4879387;29;20080;-67
2021/03/17 06:56:25;;;;;;;5.53;3.30;;;;;;;9.10;32.08;101313.81;4881383;29;20049;-64
2021/03/17 06:58:53;;;;;;;8.02;4.05;;;;;;;9.24;31.80;101318.50;4875758;29;20091;-64
2021/03/17 07:01:37;;;;;;;9.23;4.18;;;;;;;9.38;31.94;101319.66;4876166;29;20128;-64
2021/03/17 07:04:12;;;;;;;5.57;2.77;;;;;;;9.52;31.11;101325.16;4875454;29;20069;-66
2021/03/17 07:06:44;;;;;;;5.93;2.53;;;;;;;9.66;30.58;101318.47;4875864;29;20105;-68
2021/03/17 07:09:13;;;;;;;5.63;2.15;;;;;;;9.81;30.25;101323.03;4857730;29;20045;-65
2021/03/17 07:11:39;;;;;;;4.63;2.20;;;;;;;9.91;29.80;101318.25;4870740;29;20062;-66
2021/03/17 07:14:05;;;;;;;9.95;2.33;;;;;;;10.02;29.38;101315.13;4876265;29;20117;-65
2021/03/17 07:16:35;;;;;;;8.30;2.20;;;;;;;10.13;28.98;101318.13;4875963;29;20069;-65
2021/03/17 07:19:49;;;;;;;4.90;1.90;;;;;;;10.32;28.83;101318.13;4875618;29;20132;-65
2021/03/17 07:22:16;;;;;;;6.85;2.10;;;;;;;10.48;28.95;101322.72;4842377;29;20063;-65
2021/03/17 07:24:44;;;;;;;4.35;2.08;;;;;;;10.60;28.82;101317.72;4865235;29;20140;-66
2021/03/17 07:27:18;;;;;;;4.20;2.30;;;;;;;10.72;28.86;101318.06;4875962;29;20141;-66
2021/03/17 07:30:02;;;;;;;5.78;2.30;;;;;;;10.84;28.66;101312.22;4875763;29;20052;-63
2021/03/17 07:33:00;;;;;;;5.50;2.40;;;;;;;10.98;28.28;101321.19;4874121;29;20053;-63
2021/03/17 07:35:34;;;;;;;14.13;3.15;;;;;;;11.09;27.84;101324.16;4869150;29;20135;-63
2021/03/17 07:38:02;;;;;;;10.95;4.05;;;;;;;11.20;28.11;101321.84;4875241;29;20053;-67
2021/03/17 07:40:29;;;;;;;6.97;3.33;;;;;;;11.30;27.97;101322.25;4875391;29;20057;-67
2021/03/17 07:42:59;;;;;;;8.38;2.97;;;;;;;11.39;28.12;101324.38;4875227;29;20053;-64
2021/03/17 07:45:28;;;;;;;4.82;2.45;;;;;;;11.50;28.29;101323.81;4882465;29;20510;-64
2021/03/17 07:47:55;;;;;;;8.90;2.50;;;;;;;11.57;28.47;101329.63;4874313;29;20056;-64
2021/03/17 07:50:22;;;;;;;7.93;1.95;;;;;;;11.65;28.71;101334.50;4874957;29;20123;-64
2021/03/17 07:52:51;;;;;;;5.18;2.38;;;;;;;11.68;28.60;101329.94;4875362;29;20089;-63
2021/03/17 07:55:19;;;;;;;9.23;3.33;;;;;;;11.72;28.41;101331.47;4875079;29;20092;-66
2021/03/17 07:57:45;;;;;;;9.50;3.63;;;;;;;11.79;28.05;101336.41;4874862;29;20473;-67
2021/03/17 08:00:14;;;;;;;6.82;3.20;;;;;;;11.87;27.95;101327.19;4874806;29;20149;-68
2021/03/17 08:02:45;;;;;;;10.98;3.47;;;;;;;11.96;27.59;101333.78;4858903;29;20061;-66
2021/03/17 08:05:12;;;;;;;8.45;2.83;;;;;;;12.07;27.59;101325.31;4882274;29;20130;-67
2021/03/17 08:07:40;;;;;;;8.68;2.88;;;;;;;12.18;27.29;101320.31;4875107;29;20052;-67
2021/03/17 08:10:09;;;;;;;5.65;2.88;;;;;;;12.28;26.98;101325.06;4875031;29;20110;-67
2021/03/17 08:12:43;;;;;;;6.30;2.70;;;;;;;12.38;26.81;101324.50;4874447;29;20063;-66
2021/03/17 08:15:15;;;;;;;6.40;1.85;;;;;;;12.50;26.21;101322.13;4855132;29;20053;-67
2021/03/17 08:17:43;;;;;;;3.17;1.73;;;;;;;12.62;25.90;101324.06;4856197;29;20077;-68
2021/03/17 08:20:12;;;;;;;5.85;2.97;;;;;;;12.71;25.68;101322.72;4856237;29;20436;-67
2021/03/17 08:22:38;;;;;;;9.52;2.90;;;;;;;12.76;25.04;101320.66;4855961;29;20049;-68
2021/03/17 08:25:09;;;;;;;11.07;3.90;;;;;;;12.83;24.72;101319.38;4856037;29;20384;-68
2021/03/17 08:27:36;;;;;;;5.72;2.75;;;;;;;12.90;25.21;101315.44;4856010;29;20060;-69
2021/03/17 08:30:07;;;;;;;7.53;2.63;;;;;;;13.02;25.39;101323.59;4863103;29;20163;-68
2021/03/17 08:32:51;;;;;;;10.57;3.00;;;;;;;13.16;25.27;101312.25;4893356;29;20048;-66
2021/03/17 08:35:18;;;;;;;11.98;3.63;;;;;;;13.34;25.48;101318.22;4893535;29;20060;-67
2021/03/17 08:37:55;;;;;;;12.20;3.00;;;;;;;13.68;31.02;101308.31;4882543;29;20060;-68
2021/03/17 08:40:45;;;;;;;9.65;3.20;;;;;;;14.02;35.01;101308.91;4874664;29;20061;-69
2021/03/17 08:43:33;;;;;;;10.63;2.55;;;;;;;14.31;36.97;101304.44;4867985;29;20124;-72
2021/03/17 08:46:14;;;;;;;8.88;2.25;;;;;;;14.52;36.81;101296.06;4855877;29;20059;-68
2021/03/17 08:48:58;;;;;;;5.75;2.08;;;;;;;14.72;36.29;101294.81;4873545;29;20401;-69
2021/03/17 08:51:46;;;;;;;7.05;1.95;;;;;;;14.91;35.63;101297.09;4874815;29;20098;-67
2021/03/17 08:54:44;;;;;;;4.63;1.48;;;;;;;15.07;33.62;101293.41;4874741;29;20179;-66
2021/03/17 08:57:13;;;;;;;4.95;1.25;;;;;;;15.08;30.35;101289.84;4881691;29;20059;-71
2021/03/17 08:59:50;;;;;;;3.60;1.50;;;;;;;15.10;27.46;101290.59;4881663;29;20073;-65
2021/03/17 09:02:26;;;;;;;2.97;1.00;;;;;;;15.13;26.06;101288.56;4883455;29;20049;-67
2021/03/17 09:05:16;;;;;;;5.75;1.23;;;;;;;15.17;24.45;101286.56;4880973;29;20492;-68
2021/03/17 09:08:04;;;;;;;2.47;1.10;;;;;;;15.26;23.33;101285.09;4883567;29;20051;-65
2021/03/17 09:10:44;;;;;;;2.38;1.15;;;;;;;15.34;22.89;101283.63;4880784;29;20053;-72
2021/03/17 09:13:11;;;;;;;3.22;1.00;;;;;;;15.46;22.68;101286.38;4879768;29;20059;-68
2021/03/17 09:15:44;;;;;;;6.15;1.30;;;;;;;15.55;22.06;101279.63;4873728;29;20049;-69
2021/03/17 09:18:12;;;;;;;3.80;1.30;;;;;;;15.56;20.90;101279.50;4873318;29;20576;-68
2021/03/17 09:20:49;;;;;;;3.80;1.38;;;;;;;15.63;20.13;101271.97;4874506;29;20061;-67
2021/03/17 09:23:21;;;;;;;6.32;1.13;;;;;;;15.67;19.49;101274.31;4874703;29;20516;-65
2021/03/17 09:25:51;;;;;;;1.85;0.80;;;;;;;15.76;19.01;101277.28;4871853;29;20108;-67
2021/03/17 09:28:30;;;;;;;1.85;0.95;;;;;;;15.85;18.23;101267.88;4863640;29;20135;-67
2021/03/17 09:31:04;;;;;;;1.88;1.20;;;;;;;15.98;18.36;101258.94;4877201;29;20056;-67
2021/03/17 09:33:40;;;;;;;2.95;1.17;;;;;;;16.13;18.75;101254.34;4876847;29;20057;-67
2021/03/17 09:36:19;;;;;;;;;;;;;;;16.21;18.54;101259.09;4876638;29;20091;-68
2021/03/17 09:38:53;;;;;;;3.63;0.93;;;;;;;16.38;18.21;101259.66;4876888;29;19924;-68
2021/03/17 09:41:28;;;;;;;1.00;0.70;;;;;;;16.52;18.06;101259.53;4877387;29;20045;-65
2021/03/17 09:44:05;;;;;;;2.45;0.90;;;;;;;16.68;17.80;101261.03;4877122;29;20136;-67
2021/03/17 09:46:37;;;;;;;8.57;3.75;;;;;;;16.84;17.61;101260.75;4862097;29;20563;-70
2021/03/17 09:49:07;;;;;;;3.28;1.23;;;;;;;16.95;17.83;101259.00;4876618;29;20553;-68
2021/03/17 09:51:55;;;;;;;1.45;0.80;;;;;;;17.13;17.92;101251.44;4879767;29;20523;-68
2021/03/17 09:54:23;;;;;;;0.98;0.70;;;;;;;17.24;17.62;101252.41;4871798;29;20057;-70
2021/03/17 09:56:54;;;;;;;3.92;0.75;;;;;;;17.36;17.74;101248.00;4876696;29;20076;-66
2021/03/17 09:59:32;;;;;;;1.67;0.55;;;;;;;17.51;17.38;101246.81;4876684;29;20504;-68
2021/03/17 10:02:01;;;;;;;6.40;1.35;;;;;;;17.61;16.76;101238.94;4875979;29;20045;-69
2021/03/17 10:04:32;;;;;;;2.30;0.70;;;;;;;17.66;16.39;101234.16;4886097;29;20065;-68
2021/03/17 10:07:00;;;;;;;2.97;0.70;;;;;;;17.78;16.19;101232.31;4875879;29;20097;-67
2021/03/17 10:09:30;;;;;;;3.50;1.05;;;;;;;17.93;16.60;101228.47;4876756;29;20053;-67
2021/03/17 10:12:08;;;;;;;7.50;1.27;;;;;;;18.10;16.47;101227.09;4876264;29;20137;-67
2021/03/17 10:14:39;;;;;;;6.15;1.15;;;;;;;18.10;15.91;101221.78;4876328;29;20053;-67
2021/03/17 10:17:07;;;;;;;3.55;1.00;;;;;;;18.11;16.25;101219.97;4875346;29;20090;-67
2021/03/17 10:19:36;;;;;;;4.03;0.90;;;;;;;18.20;16.50;101210.44;4876607;29;20049;-66
2021/03/17 10:22:03;;;;;;;5.43;1.73;;;;;;;18.24;15.92;101219.81;4876632;29;20071;-67
2021/03/17 10:24:39;;;;;;;7.50;1.83;;;;;;;18.38;16.21;101218.69;4876557;29;20445;-66
2021/03/17 10:27:09;;;;;;;5.25;1.27;;;;;;;18.57;16.59;101205.56;4875970;29;20068;-66
2021/03/17 10:29:38;;;;;;;3.08;1.25;;;;;;;18.69;16.51;101201.06;4876004;29;20045;-68
2021/03/17 10:32:06;;;;;;;2.00;1.00;;;;;;;18.83;16.86;101201.69;4875952;29;20060;-67
2021/03/17 10:34:37;;;;;;;3.78;1.13;;;;;;;18.95;16.44;101199.84;4875586;29;20105;-68
2021/03/17 10:37:14;;;;;;;2.67;0.90;;;;;;;19.03;15.69;101192.91;4885905;29;20052;-67
2021/03/17 10:39:41;;;;;;;1.05;0.80;;;;;;;19.12;15.42;101196.56;4862050;29;20419;-67
2021/03/17 10:42:21;;;;;;;2.28;0.60;;;;;;;19.18;14.94;101187.22;4893933;29;20080;-67
2021/03/17 10:45:08;;;;;;;1.08;0.63;;;;;;;19.26;14.71;101182.06;4891772;29;20052;-68
2021/03/17 10:47:36;;;;;;;3.08;0.90;;;;;;;19.34;14.26;101184.09;4887914;29;20045;-69
2021/03/17 10:50:16;;;;;;;2.35;0.68;;;;;;;19.45;14.64;101177.81;4891411;29;20081;-68
2021/03/17 10:52:48;;;;;;;1.23;0.80;;;;;;;19.56;14.70;101175.06;4890556;29;20044;-68
2021/03/17 10:55:20;;;;;;;2.42;0.80;;;;;;;19.62;14.01;101174.53;4891834;29;20101;-68
2021/03/17 10:57:47;;;;;;;3.83;0.60;;;;;;;19.68;13.27;101168.66;4890671;29;20057;-68
2021/03/17 11:00:21;;;;;;;0.73;0.40;;;;;;;19.74;13.41;101168.13;4885456;29;20566;-69
2021/03/17 11:02:49;;;;;;;1.35;0.50;;;;;;;19.82;13.56;101169.25;4885625;29;20097;-68
2021/03/17 11:05:20;;;;;;;2.33;0.95;;;;;;;19.78;13.76;101163.34;4883124;29;20064;-65
2021/03/17 11:08:11;;;;;;;5.93;0.90;;;;;;;19.79;17.27;101162.38;4883452;29;20131;-62
2021/03/17 11:10:45;;;;;;;5.03;1.08;;;;;;;19.66;17.52;101153.81;4882457;29;20136;-62
2021/03/17 11:13:11;;;;;;;2.00;1.10;;;;;;;19.70;18.44;101152.53;4883600;29;20052;-67
2021/03/17 11:15:46;;;;;;;7.80;0.88;;;;;;;19.74;18.25;101167.25;4884570;29;20073;-64
2021/03/17 11:18:46;;;;;;;3.72;1.02;;;;;;;19.79;18.54;101157.03;4880883;29;20408;-64
2021/03/17 11:21:35;;;;;;;3.83;1.30;;;;;;;19.85;18.25;101142.38;4881308;29;20049;-64
2021/03/17 11:24:05;;;;;;;2.90;1.20;;;;;;;19.82;17.16;101147.94;4881648;29;20581;-63
2021/03/17 11:26:36;;;;;;;2.30;0.70;;;;;;;19.90;17.93;101146.28;4888143;29;20345;-65
2021/03/17 11:29:17;;;;;;;3.08;1.00;;;;;;;20.04;18.04;101136.22;4888320;29;20052;-65
2021/03/17 11:31:52;;;;;;;4.72;0.98;;;;;;;20.02;18.09;101135.50;4888112;29;20408;-67
2021/03/17 11:34:20;;;;;;;4.50;1.03;;;;;;;20.11;17.74;101131.19;4891126;29;21240;-66
2021/03/17 11:36:48;;;;;;;6.55;1.00;;;;;;;20.14;17.37;101131.75;4889461;29;20446;-69
2021/03/17 11:39:16;;;;;;;2.22;0.85;;;;;;;20.14;15.56;101130.91;4889585;29;20060;-70
2021/03/17 11:41:45;;;;;;;1.52;0.88;;;;;;;20.23;15.39;101130.06;4888953;29;20064;-70
2021/03/17 11:44:17;;;;;;;2.17;0.60;;;;;;;20.42;15.37;101133.69;4886426;29;20048;-70
2021/03/17 11:46:44;;;;;;;1.27;0.70;;;;;;;20.49;14.68;101122.34;4876431;29;20380;-70
2021/03/17 11:49:13;;;;;;;4.43;1.23;;;;;;;20.66;15.13;101119.91;4891056;29;20297;-70